FJO62L LESO-LEMD
Flight info
| Callsign | FJO62L |
|---|---|
| Flight time | 0h 53m |
| Altitude | 8500 |
| Route | PPN2U PPN N857 BANEV BANE3B |
| Aircraft | P06T/L-V/N |
Departure
| Time | 2026-05-09 14:18 |
|---|---|
| Airport | San Sebastián Airport (LESO) |
Arrival
| Time | 2026-05-09 15:12 |
|---|---|
| Airport | Adolfo Suárez Madrid–Barajas Airport (LEMD) |
| Time | Latitude | Longitude | Altitude | Speed | Heading |
|---|---|---|---|---|---|
| 2026-05-09 14:01 | 43.35720 | -1.79139 | 12 ft | 0 kts | 219° |
| 2026-05-09 14:07 | 43.35710 | -1.79139 | 12 ft | 3 kts | 141° |
| 2026-05-09 14:08 | 43.35733 | -1.79098 | 12 ft | 10 kts | 52° |
| 2026-05-09 14:08 | 43.35740 | -1.79075 | 13 ft | 0 kts | 100° |
| 2026-05-09 14:08 | 43.35726 | -1.79016 | 13 ft | 18 kts | 85° |
| 2026-05-09 14:08 | 43.35798 | -1.78898 | 14 ft | 31 kts | 38° |
| 2026-05-09 14:09 | 43.36000 | -1.78675 | 17 ft | 39 kts | 39° |
| 2026-05-09 14:09 | 43.36202 | -1.78415 | 18 ft | 10 kts | 60° |
| 2026-05-09 14:09 | 43.36236 | -1.78374 | 18 ft | 10 kts | 345° |
| 2026-05-09 14:09 | 43.36232 | -1.78422 | 19 ft | 0 kts | 217° |
| 2026-05-09 14:18 | 43.36231 | -1.78423 | 19 ft | 5 kts | 217° |
| 2026-05-09 14:18 | 43.35817 | -1.78883 | 15 ft | 145 kts | 218° |
| 2026-05-09 14:18 | 43.34904 | -1.79931 | 913 ft | 185 kts | 223° |
| 2026-05-09 14:18 | 43.33875 | -1.81145 | 2385 ft | 211 kts | 226° |
| 2026-05-09 14:19 | 43.32814 | -1.82883 | 2919 ft | 268 kts | 234° |
| 2026-05-09 14:19 | 43.31575 | -1.85095 | 3130 ft | 297 kts | 232° |
| 2026-05-09 14:19 | 43.30222 | -1.87190 | 3357 ft | 287 kts | 229° |
| 2026-05-09 14:19 | 43.28838 | -1.89162 | 3587 ft | 286 kts | 227° |
| 2026-05-09 14:20 | 43.27276 | -1.90790 | 3814 ft | 282 kts | 211° |
| 2026-05-09 14:20 | 43.25521 | -1.91889 | 4030 ft | 279 kts | 202° |
| 2026-05-09 14:20 | 43.23611 | -1.92409 | 4252 ft | 280 kts | 188° |
| 2026-05-09 14:21 | 43.19748 | -1.91754 | 4474 ft | 289 kts | 163° |
| 2026-05-09 14:21 | 43.17931 | -1.90511 | 4594 ft | 293 kts | 149° |
| 2026-05-09 14:21 | 43.16235 | -1.88990 | 4720 ft | 292 kts | 150° |
| 2026-05-09 14:21 | 43.14485 | -1.87574 | 4860 ft | 293 kts | 151° |
| 2026-05-09 14:22 | 43.12763 | -1.86063 | 4980 ft | 291 kts | 149° |
| 2026-05-09 14:22 | 43.11050 | -1.84571 | 5129 ft | 293 kts | 150° |
| 2026-05-09 14:22 | 43.09316 | -1.83087 | 5249 ft | 296 kts | 149° |
| 2026-05-09 14:22 | 43.07465 | -1.81491 | 5407 ft | 332 kts | 150° |
| 2026-05-09 14:23 | 43.05462 | -1.79798 | 5613 ft | 342 kts | 149° |
| 2026-05-09 14:23 | 43.03437 | -1.78052 | 5905 ft | 347 kts | 149° |
| 2026-05-09 14:23 | 43.01265 | -1.76602 | 6172 ft | 346 kts | 164° |
| 2026-05-09 14:23 | 42.98921 | -1.75844 | 6447 ft | 347 kts | 173° |
| 2026-05-09 14:24 | 42.96532 | -1.75315 | 6728 ft | 348 kts | 173° |
| 2026-05-09 14:24 | 42.94159 | -1.74779 | 7049 ft | 350 kts | 175° |
| 2026-05-09 14:24 | 42.91728 | -1.74291 | 7298 ft | 354 kts | 172° |
| 2026-05-09 14:24 | 42.89257 | -1.73703 | 7518 ft | 362 kts | 173° |
| 2026-05-09 14:25 | 42.86749 | -1.73150 | 7490 ft | 368 kts | 172° |
| 2026-05-09 14:25 | 42.84203 | -1.72553 | 7508 ft | 367 kts | 173° |
| 2026-05-09 14:25 | 42.81756 | -1.72060 | 7508 ft | 343 kts | 174° |
| 2026-05-09 14:25 | 42.79467 | -1.71544 | 7795 ft | 338 kts | 173° |
| 2026-05-09 14:26 | 42.77026 | -1.70996 | 8409 ft | 370 kts | 173° |
| 2026-05-09 14:26 | 42.74418 | -1.70911 | 9073 ft | 386 kts | 188° |
| 2026-05-09 14:26 | 42.71772 | -1.71558 | 10223 ft | 382 kts | 198° |
| 2026-05-09 14:26 | 42.69350 | -1.72934 | 11704 ft | 375 kts | 208° |
| 2026-05-09 14:27 | 42.66997 | -1.74481 | 13199 ft | 370 kts | 207° |
| 2026-05-09 14:27 | 42.64713 | -1.76001 | 14671 ft | 367 kts | 209° |
| 2026-05-09 14:27 | 42.62448 | -1.77574 | 16144 ft | 364 kts | 209° |
| 2026-05-09 14:27 | 42.60181 | -1.79091 | 17623 ft | 362 kts | 208° |
| 2026-05-09 14:28 | 42.57917 | -1.80593 | 19107 ft | 359 kts | 208° |
| 2026-05-09 14:28 | 42.55705 | -1.82073 | 20575 ft | 355 kts | 208° |
| 2026-05-09 14:28 | 42.53495 | -1.83575 | 22047 ft | 350 kts | 208° |
| 2026-05-09 14:28 | 42.51327 | -1.85025 | 23518 ft | 344 kts | 208° |
| 2026-05-09 14:29 | 42.49219 | -1.86413 | 24958 ft | 336 kts | 208° |
| 2026-05-09 14:29 | 42.47145 | -1.87808 | 26400 ft | 327 kts | 208° |
| 2026-05-09 14:29 | 42.45162 | -1.89139 | 27835 ft | 314 kts | 208° |
| 2026-05-09 14:29 | 42.43207 | -1.90443 | 28910 ft | 316 kts | 208° |
| 2026-05-09 14:30 | 42.41136 | -1.91830 | 28992 ft | 346 kts | 208° |
| 2026-05-09 14:30 | 42.38938 | -1.93299 | 29003 ft | 351 kts | 208° |
| 2026-05-09 14:30 | 42.36789 | -1.94716 | 28996 ft | 335 kts | 208° |
| 2026-05-09 14:30 | 42.34758 | -1.96065 | 28991 ft | 322 kts | 208° |
| 2026-05-09 14:31 | 42.32782 | -1.97385 | 28986 ft | 310 kts | 209° |
| 2026-05-09 14:31 | 42.30869 | -1.98658 | 28988 ft | 301 kts | 208° |
| 2026-05-09 14:31 | 42.29016 | -1.99887 | 28993 ft | 292 kts | 208° |
| 2026-05-09 14:31 | 42.27205 | -2.01087 | 28986 ft | 286 kts | 208° |
| 2026-05-09 14:32 | 42.25455 | -2.02249 | 28988 ft | 280 kts | 209° |
| 2026-05-09 14:32 | 42.23721 | -2.03399 | 28991 ft | 274 kts | 208° |
| 2026-05-09 14:32 | 42.22018 | -2.04527 | 28986 ft | 270 kts | 209° |
| 2026-05-09 14:32 | 42.20341 | -2.05640 | 28990 ft | 266 kts | 209° |
| 2026-05-09 14:33 | 42.18699 | -2.06724 | 28989 ft | 263 kts | 209° |
| 2026-05-09 14:33 | 42.17070 | -2.07800 | 28990 ft | 259 kts | 209° |
| 2026-05-09 14:33 | 42.15465 | -2.08865 | 28994 ft | 255 kts | 209° |
| 2026-05-09 14:33 | 42.13868 | -2.09914 | 28993 ft | 252 kts | 209° |
| 2026-05-09 14:34 | 42.12316 | -2.10944 | 28996 ft | 251 kts | 209° |
| 2026-05-09 14:34 | 42.10745 | -2.11977 | 29005 ft | 249 kts | 209° |
| 2026-05-09 14:34 | 42.09189 | -2.13006 | 28992 ft | 248 kts | 209° |
| 2026-05-09 14:34 | 42.07639 | -2.14025 | 28989 ft | 246 kts | 209° |
| 2026-05-09 14:35 | 42.06100 | -2.15040 | 28997 ft | 244 kts | 209° |
| 2026-05-09 14:35 | 42.04594 | -2.16036 | 28990 ft | 244 kts | 209° |
| 2026-05-09 14:35 | 42.03059 | -2.17039 | 28992 ft | 242 kts | 208° |
| 2026-05-09 14:35 | 42.01557 | -2.18016 | 28992 ft | 242 kts | 210° |
| 2026-05-09 14:36 | 42.00050 | -2.19030 | 28991 ft | 242 kts | 209° |
| 2026-05-09 14:36 | 41.98534 | -2.20015 | 28993 ft | 241 kts | 209° |
| 2026-05-09 14:36 | 41.97044 | -2.20992 | 28991 ft | 240 kts | 209° |
| 2026-05-09 14:36 | 41.95547 | -2.21981 | 28988 ft | 239 kts | 209° |
| 2026-05-09 14:37 | 41.94038 | -2.22963 | 28998 ft | 240 kts | 209° |
| 2026-05-09 14:37 | 41.92537 | -2.23948 | 28991 ft | 240 kts | 209° |
| 2026-05-09 14:37 | 41.91055 | -2.24920 | 28995 ft | 238 kts | 209° |
| 2026-05-09 14:37 | 41.89558 | -2.25899 | 29004 ft | 239 kts | 209° |
| 2026-05-09 14:38 | 41.88052 | -2.26892 | 29000 ft | 241 kts | 209° |
| 2026-05-09 14:38 | 41.86555 | -2.27864 | 28995 ft | 241 kts | 209° |
| 2026-05-09 14:38 | 41.85037 | -2.28864 | 28998 ft | 242 kts | 209° |
| 2026-05-09 14:38 | 41.83531 | -2.29840 | 28998 ft | 243 kts | 209° |
| 2026-05-09 14:39 | 41.82013 | -2.30835 | 28999 ft | 241 kts | 209° |
| 2026-05-09 14:39 | 41.80501 | -2.31812 | 29008 ft | 243 kts | 209° |
| 2026-05-09 14:39 | 41.78999 | -2.32809 | 29003 ft | 241 kts | 209° |
| 2026-05-09 14:39 | 41.77488 | -2.33785 | 28998 ft | 241 kts | 209° |
| 2026-05-09 14:40 | 41.75979 | -2.34772 | 29007 ft | 242 kts | 209° |
| 2026-05-09 14:40 | 41.74456 | -2.35760 | 29006 ft | 243 kts | 209° |
| 2026-05-09 14:40 | 41.72955 | -2.36737 | 29003 ft | 242 kts | 209° |
| 2026-05-09 14:40 | 41.71390 | -2.37762 | 28366 ft | 263 kts | 209° |
| 2026-05-09 14:41 | 41.69674 | -2.38883 | 27416 ft | 285 kts | 208° |
| 2026-05-09 14:41 | 41.67839 | -2.40074 | 26494 ft | 301 kts | 208° |
| 2026-05-09 14:41 | 41.65933 | -2.41298 | 25584 ft | 311 kts | 208° |
| 2026-05-09 14:41 | 41.63952 | -2.42591 | 24659 ft | 320 kts | 208° |
| 2026-05-09 14:42 | 41.61928 | -2.43907 | 23724 ft | 325 kts | 208° |
| 2026-05-09 14:42 | 41.59883 | -2.45231 | 22790 ft | 328 kts | 208° |
| 2026-05-09 14:42 | 41.57827 | -2.46558 | 21852 ft | 329 kts | 208° |
| 2026-05-09 14:42 | 41.55777 | -2.47886 | 20917 ft | 329 kts | 208° |
| 2026-05-09 14:43 | 41.53719 | -2.49216 | 19977 ft | 328 kts | 208° |
| 2026-05-09 14:43 | 41.51725 | -2.50521 | 19051 ft | 325 kts | 209° |
| 2026-05-09 14:43 | 41.49853 | -2.52250 | 18067 ft | 320 kts | 223° |
| 2026-05-09 14:43 | 41.48298 | -2.54354 | 17103 ft | 315 kts | 230° |
| 2026-05-09 14:44 | 41.46848 | -2.56541 | 16145 ft | 312 kts | 230° |
| 2026-05-09 14:44 | 41.45415 | -2.58642 | 15212 ft | 309 kts | 230° |
| 2026-05-09 14:44 | 41.44032 | -2.60723 | 15002 ft | 284 kts | 230° |
| 2026-05-09 14:44 | 41.42771 | -2.62577 | 14985 ft | 257 kts | 230° |
| 2026-05-09 14:45 | 41.41626 | -2.64272 | 14981 ft | 234 kts | 230° |
| 2026-05-09 14:45 | 41.40588 | -2.65805 | 14991 ft | 216 kts | 230° |
| 2026-05-09 14:45 | 41.39617 | -2.67251 | 14993 ft | 199 kts | 231° |
| 2026-05-09 14:45 | 41.38711 | -2.68597 | 14995 ft | 196 kts | 231° |
| 2026-05-09 14:46 | 41.37831 | -2.69913 | 14983 ft | 181 kts | 231° |
| 2026-05-09 14:46 | 41.37002 | -2.71117 | 14971 ft | 173 kts | 230° |
| 2026-05-09 14:46 | 41.36222 | -2.72265 | 14992 ft | 163 kts | 232° |
| 2026-05-09 14:46 | 41.35473 | -2.73381 | 14985 ft | 156 kts | 232° |
| 2026-05-09 14:47 | 41.34720 | -2.74509 | 14993 ft | 195 kts | 230° |
| 2026-05-09 14:47 | 41.33728 | -2.75981 | 15018 ft | 244 kts | 231° |
| 2026-05-09 14:47 | 41.32456 | -2.77862 | 15039 ft | 305 kts | 226° |
| 2026-05-09 14:47 | 41.30934 | -2.80057 | 15011 ft | 327 kts | 226° |
| 2026-05-09 14:48 | 41.29429 | -2.82310 | 14957 ft | 318 kts | 227° |
| 2026-05-09 14:48 | 41.27974 | -2.84458 | 14921 ft | 312 kts | 226° |
| 2026-05-09 14:48 | 41.26533 | -2.86577 | 14914 ft | 306 kts | 226° |
| 2026-05-09 14:48 | 41.25115 | -2.88661 | 14909 ft | 301 kts | 226° |
| 2026-05-09 14:49 | 41.23706 | -2.90724 | 14780 ft | 302 kts | 226° |
| 2026-05-09 14:49 | 41.22309 | -2.92786 | 14549 ft | 306 kts | 226° |
| 2026-05-09 14:49 | 41.20873 | -2.94886 | 14322 ft | 308 kts | 226° |
| 2026-05-09 14:49 | 41.19423 | -2.97022 | 13921 ft | 314 kts | 226° |
| 2026-05-09 14:50 | 41.17924 | -2.99206 | 13163 ft | 327 kts | 226° |
| 2026-05-09 14:50 | 41.16364 | -3.01501 | 12390 ft | 336 kts | 226° |
| 2026-05-09 14:50 | 41.14796 | -3.03793 | 11647 ft | 340 kts | 226° |
| 2026-05-09 14:50 | 41.13738 | -3.05337 | 11163 ft | 343 kts | 226° |
| 2026-05-09 14:51 | 41.11597 | -3.08473 | 10197 ft | 344 kts | 226° |
| 2026-05-09 14:51 | 41.09975 | -3.10836 | 9448 ft | 344 kts | 226° |
| 2026-05-09 14:51 | 41.08383 | -3.13166 | 8686 ft | 343 kts | 225° |
| 2026-05-09 14:51 | 41.06774 | -3.15504 | 7978 ft | 342 kts | 225° |
| 2026-05-09 14:52 | 41.05259 | -3.17724 | 7917 ft | 301 kts | 225° |
| 2026-05-09 14:52 | 41.03948 | -3.19641 | 7908 ft | 259 kts | 224° |
| 2026-05-09 14:52 | 41.02821 | -3.21277 | 7902 ft | 227 kts | 224° |
| 2026-05-09 14:52 | 41.01818 | -3.22734 | 7902 ft | 200 kts | 224° |
| 2026-05-09 14:53 | 41.00925 | -3.24029 | 7902 ft | 180 kts | 224° |
| 2026-05-09 14:53 | 41.00127 | -3.25184 | 7900 ft | 164 kts | 223° |
| 2026-05-09 14:53 | 40.99388 | -3.26256 | 7901 ft | 151 kts | 223° |
| 2026-05-09 14:53 | 40.98705 | -3.27249 | 7905 ft | 140 kts | 223° |
| 2026-05-09 14:54 | 40.98070 | -3.28171 | 7905 ft | 131 kts | 223° |
| 2026-05-09 14:54 | 40.97476 | -3.29028 | 7908 ft | 124 kts | 223° |
| 2026-05-09 14:54 | 40.96910 | -3.29855 | 7909 ft | 117 kts | 222° |
| 2026-05-09 14:54 | 40.96380 | -3.30616 | 7909 ft | 109 kts | 221° |
| 2026-05-09 14:55 | 40.95874 | -3.31351 | 7903 ft | 105 kts | 221° |
| 2026-05-09 14:55 | 40.95384 | -3.32070 | 7917 ft | 108 kts | 223° |
| 2026-05-09 14:55 | 40.94849 | -3.32822 | 7918 ft | 118 kts | 221° |
| 2026-05-09 14:55 | 40.94238 | -3.33707 | 7938 ft | 136 kts | 224° |
| 2026-05-09 14:56 | 40.93815 | -3.34340 | 7936 ft | 141 kts | 223° |
| 2026-05-09 14:56 | 40.93133 | -3.35307 | 7938 ft | 145 kts | 223° |
| 2026-05-09 14:56 | 40.92452 | -3.36316 | 7934 ft | 150 kts | 224° |
| 2026-05-09 14:56 | 40.91913 | -3.37530 | 7933 ft | 159 kts | 245° |
| 2026-05-09 14:57 | 40.91677 | -3.38991 | 7928 ft | 168 kts | 258° |
| 2026-05-09 14:57 | 40.91838 | -3.40566 | 7937 ft | 177 kts | 276° |
| 2026-05-09 14:57 | 40.92102 | -3.42164 | 7935 ft | 178 kts | 272° |
| 2026-05-09 14:57 | 40.92343 | -3.43786 | 7934 ft | 180 kts | 274° |
| 2026-05-09 14:58 | 40.92502 | -3.45379 | 7925 ft | 168 kts | 258° |
| 2026-05-09 14:58 | 40.92299 | -3.46835 | 7916 ft | 156 kts | 251° |
| 2026-05-09 14:58 | 40.92150 | -3.48217 | 7915 ft | 146 kts | 253° |
| 2026-05-09 14:58 | 40.91980 | -3.49491 | 7904 ft | 137 kts | 250° |
| 2026-05-09 14:59 | 40.91801 | -3.50695 | 7831 ft | 132 kts | 243° |
| 2026-05-09 14:59 | 40.91310 | -3.51686 | 7669 ft | 129 kts | 223° |
| 2026-05-09 14:59 | 40.90634 | -3.52488 | 7410 ft | 137 kts | 207° |
| 2026-05-09 14:59 | 40.89751 | -3.53100 | 7078 ft | 150 kts | 210° |
| 2026-05-09 15:00 | 40.88871 | -3.53893 | 6747 ft | 149 kts | 211° |
| 2026-05-09 15:00 | 40.88010 | -3.54575 | 6402 ft | 140 kts | 209° |
| 2026-05-09 15:00 | 40.87216 | -3.55240 | 6046 ft | 135 kts | 210° |
| 2026-05-09 15:00 | 40.86437 | -3.55865 | 5907 ft | 119 kts | 208° |
| 2026-05-09 15:01 | 40.85235 | -3.56857 | 5898 ft | 88 kts | 205° |
| 2026-05-09 15:01 | 40.84675 | -3.57289 | 5894 ft | 106 kts | 209° |
| 2026-05-09 15:01 | 40.83950 | -3.57686 | 5932 ft | 126 kts | 187° |
| 2026-05-09 15:02 | 40.83027 | -3.57561 | 5937 ft | 141 kts | 174° |
| 2026-05-09 15:02 | 40.82062 | -3.57632 | 5932 ft | 131 kts | 187° |
| 2026-05-09 15:02 | 40.81202 | -3.57566 | 5919 ft | 115 kts | 180° |
| 2026-05-09 15:02 | 40.80443 | -3.57634 | 5903 ft | 105 kts | 180° |
| 2026-05-09 15:03 | 40.79753 | -3.57571 | 5902 ft | 97 kts | 186° |
| 2026-05-09 15:03 | 40.79106 | -3.57864 | 5912 ft | 104 kts | 210° |
| 2026-05-09 15:03 | 40.78566 | -3.58522 | 5916 ft | 110 kts | 227° |
| 2026-05-09 15:03 | 40.78193 | -3.59447 | 5928 ft | 119 kts | 242° |
| 2026-05-09 15:04 | 40.77764 | -3.60444 | 6127 ft | 151 kts | 220° |
| 2026-05-09 15:04 | 40.76655 | -3.61142 | 6483 ft | 180 kts | 191° |
| 2026-05-09 15:06 | 40.70540 | -3.61945 | 5706 ft | 102 kts | 203° |
| 2026-05-09 15:06 | 40.70003 | -3.62409 | 5753 ft | 89 kts | 218° |
| 2026-05-09 15:06 | 40.69195 | -3.62956 | 5955 ft | 177 kts | 196° |
| 2026-05-09 15:06 | 40.67756 | -3.63149 | 6354 ft | 233 kts | 184° |
| 2026-05-09 15:07 | 40.66009 | -3.63234 | 6475 ft | 252 kts | 181° |
| 2026-05-09 15:07 | 40.64525 | -3.62573 | 6182 ft | 216 kts | 152° |
| 2026-05-09 15:07 | 40.63408 | -3.61536 | 5736 ft | 155 kts | 150° |
| 2026-05-09 15:07 | 40.62622 | -3.60788 | 5069 ft | 138 kts | 151° |
| 2026-05-09 15:08 | 40.61771 | -3.60098 | 4335 ft | 132 kts | 158° |
| 2026-05-09 15:08 | 40.60337 | -3.59373 | 4023 ft | 98 kts | 179° |
| 2026-05-09 15:08 | 40.59707 | -3.59144 | 3866 ft | 96 kts | 158° |
| 2026-05-09 15:09 | 40.59096 | -3.58641 | 3900 ft | 112 kts | 153° |
| 2026-05-09 15:10 | 40.53816 | -3.57456 | 2490 ft | 123 kts | 178° |
| 2026-05-09 15:11 | 40.52971 | -3.57471 | 2252 ft | 119 kts | 180° |
| 2026-05-09 15:11 | 40.52197 | -3.57470 | 2059 ft | 102 kts | 180° |
| 2026-05-09 15:11 | 40.51549 | -3.57468 | 1996 ft | 84 kts | 180° |
| 2026-05-09 15:11 | 40.51028 | -3.57469 | 1992 ft | 68 kts | 180° |
| 2026-05-09 15:12 | 40.50600 | -3.57470 | 1992 ft | 56 kts | 180° |
| 2026-05-09 15:12 | 40.50261 | -3.57598 | 1990 ft | 48 kts | 207° |
| 2026-05-09 15:12 | 40.49960 | -3.57697 | 1990 ft | 44 kts | 180° |
| 2026-05-09 15:12 | 40.49665 | -3.57693 | 1990 ft | 41 kts | 176° |
| 2026-05-09 15:13 | 40.49389 | -3.57686 | 1990 ft | 38 kts | 180° |
| 2026-05-09 15:13 | 40.49139 | -3.57638 | 1989 ft | 36 kts | 160° |
| 2026-05-09 15:13 | 40.48900 | -3.57623 | 1990 ft | 33 kts | 179° |
| 2026-05-09 15:13 | 40.48685 | -3.57577 | 1995 ft | 30 kts | 166° |
| 2026-05-09 15:14 | 40.48642 | -3.57564 | 1996 ft | 30 kts | 168° |